sensor_id;sensor_type;location;lat;lon;timestamp;P1;durP1;ratioP1;P2;durP2;ratioP2
8415;SDS011;4245;42.120;24.732;2022-07-30T00:00:08;7.27;;;4.87;;
8415;SDS011;4245;42.120;24.732;2022-07-30T00:02:36;6.10;;;4.80;;
8415;SDS011;4245;42.120;24.732;2022-07-30T00:05:04;6.53;;;5.30;;
8415;SDS011;4245;42.120;24.732;2022-07-30T00:07:32;5.87;;;4.70;;
8415;SDS011;4245;42.120;24.732;2022-07-30T00:09:59;6.30;;;4.40;;
8415;SDS011;4245;42.120;24.732;2022-07-30T00:12:27;5.20;;;4.70;;
8415;SDS011;4245;42.120;24.732;2022-07-30T00:14:53;7.20;;;4.77;;
8415;SDS011;4245;42.120;24.732;2022-07-30T00:17:20;8.80;;;4.97;;
8415;SDS011;4245;42.120;24.732;2022-07-30T00:19:47;6.77;;;5.10;;
8415;SDS011;4245;42.120;24.732;2022-07-30T00:22:16;5.63;;;5.00;;
8415;SDS011;4245;42.120;24.732;2022-07-30T00:24:43;5.07;;;4.57;;
8415;SDS011;4245;42.120;24.732;2022-07-30T00:27:10;6.97;;;4.80;;
8415;SDS011;4245;42.120;24.732;2022-07-30T00:29:38;5.60;;;5.10;;
8415;SDS011;4245;42.120;24.732;2022-07-30T00:32:05;5.40;;;4.90;;
8415;SDS011;4245;42.120;24.732;2022-07-30T00:34:32;5.47;;;4.97;;
8415;SDS011;4245;42.120;24.732;2022-07-30T00:36:59;6.33;;;5.20;;
8415;SDS011;4245;42.120;24.732;2022-07-30T00:39:27;5.67;;;5.17;;
8415;SDS011;4245;42.120;24.732;2022-07-30T00:41:55;6.87;;;5.40;;
8415;SDS011;4245;42.120;24.732;2022-07-30T00:44:23;10.50;;;4.77;;
8415;SDS011;4245;42.120;24.732;2022-07-30T00:46:50;6.70;;;5.27;;
8415;SDS011;4245;42.120;24.732;2022-07-30T00:49:18;9.40;;;4.80;;
8415;SDS011;4245;42.120;24.732;2022-07-30T00:51:45;9.03;;;4.83;;
8415;SDS011;4245;42.120;24.732;2022-07-30T00:54:12;6.37;;;5.10;;
8415;SDS011;4245;42.120;24.732;2022-07-30T00:56:41;6.30;;;5.20;;
8415;SDS011;4245;42.120;24.732;2022-07-30T00:59:09;5.93;;;5.33;;
8415;SDS011;4245;42.120;24.732;2022-07-30T01:01:36;8.33;;;5.00;;
8415;SDS011;4245;42.120;24.732;2022-07-30T01:04:03;6.40;;;4.90;;
8415;SDS011;4245;42.120;24.732;2022-07-30T01:06:35;9.33;;;5.30;;
8415;SDS011;4245;42.120;24.732;2022-07-30T01:09:02;7.10;;;5.47;;
8415;SDS011;4245;42.120;24.732;2022-07-30T01:11:31;6.07;;;5.00;;
8415;SDS011;4245;42.120;24.732;2022-07-30T01:14:04;6.57;;;5.10;;
8415;SDS011;4245;42.120;24.732;2022-07-30T01:16:32;5.90;;;5.30;;
8415;SDS011;4245;42.120;24.732;2022-07-30T01:18:59;5.53;;;5.00;;
8415;SDS011;4245;42.120;24.732;2022-07-30T01:21:49;5.50;;;4.97;;
8415;SDS011;4245;42.120;24.732;2022-07-30T01:24:27;7.70;;;5.10;;
8415;SDS011;4245;42.120;24.732;2022-07-30T01:27:00;11.17;;;5.13;;
8415;SDS011;4245;42.120;24.732;2022-07-30T01:29:28;6.23;;;4.97;;
8415;SDS011;4245;42.120;24.732;2022-07-30T01:31:57;6.13;;;4.93;;
8415;SDS011;4245;42.120;24.732;2022-07-30T01:34:27;6.97;;;5.00;;
8415;SDS011;4245;42.120;24.732;2022-07-30T01:36:58;5.80;;;4.70;;
8415;SDS011;4245;42.120;24.732;2022-07-30T01:39:25;7.17;;;5.40;;
8415;SDS011;4245;42.120;24.732;2022-07-30T01:41:54;10.80;;;5.87;;
8415;SDS011;4245;42.120;24.732;2022-07-30T01:44:24;5.40;;;4.90;;
8415;SDS011;4245;42.120;24.732;2022-07-30T01:46:53;6.37;;;5.10;;
8415;SDS011;4245;42.120;24.732;2022-07-30T01:49:21;5.13;;;4.63;;
8415;SDS011;4245;42.120;24.732;2022-07-30T01:51:49;6.07;;;5.43;;
8415;SDS011;4245;42.120;24.732;2022-07-30T01:54:17;6.03;;;5.20;;
8415;SDS011;4245;42.120;24.732;2022-07-30T01:56:45;5.83;;;5.20;;
8415;SDS011;4245;42.120;24.732;2022-07-30T01:59:15;5.37;;;4.90;;
8415;SDS011;4245;42.120;24.732;2022-07-30T02:01:46;7.43;;;5.10;;
8415;SDS011;4245;42.120;24.732;2022-07-30T02:04:13;6.87;;;5.20;;
8415;SDS011;4245;42.120;24.732;2022-07-30T02:06:42;5.77;;;5.17;;
8415;SDS011;4245;42.120;24.732;2022-07-30T02:09:12;5.73;;;5.20;;
8415;SDS011;4245;42.120;24.732;2022-07-30T02:11:44;7.07;;;5.40;;
8415;SDS011;4245;42.120;24.732;2022-07-30T02:14:33;7.37;;;5.27;;
8415;SDS011;4245;42.120;24.732;2022-07-30T02:17:08;7.00;;;5.43;;
8415;SDS011;4245;42.120;24.732;2022-07-30T02:19:42;7.57;;;5.43;;
8415;SDS011;4245;42.120;24.732;2022-07-30T02:22:12;5.90;;;5.30;;
8415;SDS011;4245;42.120;24.732;2022-07-30T02:24:41;6.10;;;5.37;;
8415;SDS011;4245;42.120;24.732;2022-07-30T02:27:11;7.77;;;6.07;;
8415;SDS011;4245;42.120;24.732;2022-07-30T02:29:41;9.43;;;5.77;;
8415;SDS011;4245;42.120;24.732;2022-07-30T02:32:14;7.67;;;6.00;;
8415;SDS011;4245;42.120;24.732;2022-07-30T02:34:46;6.30;;;5.70;;
8415;SDS011;4245;42.120;24.732;2022-07-30T02:37:21;10.23;;;6.20;;
8415;SDS011;4245;42.120;24.732;2022-07-30T02:39:50;9.63;;;6.90;;
8415;SDS011;4245;42.120;24.732;2022-07-30T02:42:20;11.43;;;6.37;;
8415;SDS011;4245;42.120;24.732;2022-07-30T02:44:49;6.43;;;5.80;;
8415;SDS011;4245;42.120;24.732;2022-07-30T02:47:21;6.00;;;5.40;;
8415;SDS011;4245;42.120;24.732;2022-07-30T02:49:50;7.50;;;5.90;;
8415;SDS011;4245;42.120;24.732;2022-07-30T02:52:19;6.30;;;5.70;;
8415;SDS011;4245;42.120;24.732;2022-07-30T02:54:47;6.57;;;5.23;;
8415;SDS011;4245;42.120;24.732;2022-07-30T02:57:17;6.40;;;5.10;;
8415;SDS011;4245;42.120;24.732;2022-07-30T02:59:46;6.20;;;5.60;;
8415;SDS011;4245;42.120;24.732;2022-07-30T03:02:16;6.97;;;5.53;;
8415;SDS011;4245;42.120;24.732;2022-07-30T03:04:44;5.90;;;5.30;;
8415;SDS011;4245;42.120;24.732;2022-07-30T03:07:12;7.40;;;5.70;;
8415;SDS011;4245;42.120;24.732;2022-07-30T03:09:40;6.20;;;5.60;;
8415;SDS011;4245;42.120;24.732;2022-07-30T03:12:09;6.97;;;5.80;;
8415;SDS011;4245;42.120;24.732;2022-07-30T03:14:38;6.93;;;6.00;;
8415;SDS011;4245;42.120;24.732;2022-07-30T03:17:05;6.57;;;5.77;;
8415;SDS011;4245;42.120;24.732;2022-07-30T03:19:36;6.70;;;6.00;;
8415;SDS011;4245;42.120;24.732;2022-07-30T03:22:06;8.27;;;6.50;;
8415;SDS011;4245;42.120;24.732;2022-07-30T03:24:35;7.40;;;5.67;;
8415;SDS011;4245;42.120;24.732;2022-07-30T03:27:04;8.30;;;5.90;;
8415;SDS011;4245;42.120;24.732;2022-07-30T03:29:32;8.60;;;6.47;;
8415;SDS011;4245;42.120;24.732;2022-07-30T03:32:00;7.67;;;6.30;;
8415;SDS011;4245;42.120;24.732;2022-07-30T03:34:30;6.50;;;5.90;;
8415;SDS011;4245;42.120;24.732;2022-07-30T03:36:58;8.00;;;6.63;;
8415;SDS011;4245;42.120;24.732;2022-07-30T03:39:28;7.37;;;5.90;;
8415;SDS011;4245;42.120;24.732;2022-07-30T03:41:58;6.73;;;5.80;;
8415;SDS011;4245;42.120;24.732;2022-07-30T03:44:25;7.17;;;6.47;;
8415;SDS011;4245;42.120;24.732;2022-07-30T03:46:53;7.43;;;5.80;;
8415;SDS011;4245;42.120;24.732;2022-07-30T03:49:22;6.87;;;5.97;;
8415;SDS011;4245;42.120;24.732;2022-07-30T03:51:50;7.70;;;6.60;;
8415;SDS011;4245;42.120;24.732;2022-07-30T03:54:19;9.67;;;6.70;;
8415;SDS011;4245;42.120;24.732;2022-07-30T03:56:49;9.90;;;6.33;;
8415;SDS011;4245;42.120;24.732;2022-07-30T03:59:16;8.03;;;6.43;;
8415;SDS011;4245;42.120;24.732;2022-07-30T04:01:43;7.70;;;6.50;;
8415;SDS011;4245;42.120;24.732;2022-07-30T04:04:11;9.20;;;6.47;;
8415;SDS011;4245;42.120;24.732;2022-07-30T04:06:37;9.87;;;6.97;;
8415;SDS011;4245;42.120;24.732;2022-07-30T04:09:05;8.37;;;6.80;;
8415;SDS011;4245;42.120;24.732;2022-07-30T04:11:33;8.07;;;6.73;;
8415;SDS011;4245;42.120;24.732;2022-07-30T04:14:01;8.03;;;6.27;;
8415;SDS011;4245;42.120;24.732;2022-07-30T04:16:30;8.60;;;6.30;;
8415;SDS011;4245;42.120;24.732;2022-07-30T04:19:04;8.33;;;6.23;;
8415;SDS011;4245;42.120;24.732;2022-07-30T04:21:34;10.90;;;6.43;;
8415;SDS011;4245;42.120;24.732;2022-07-30T04:24:03;10.47;;;6.77;;
8415;SDS011;4245;42.120;24.732;2022-07-30T04:26:32;10.17;;;6.70;;
8415;SDS011;4245;42.120;24.732;2022-07-30T04:29:03;10.73;;;7.30;;
8415;SDS011;4245;42.120;24.732;2022-07-30T04:31:31;8.00;;;6.70;;
8415;SDS011;4245;42.120;24.732;2022-07-30T04:34:00;8.53;;;6.87;;
8415;SDS011;4245;42.120;24.732;2022-07-30T04:36:27;11.47;;;7.37;;
8415;SDS011;4245;42.120;24.732;2022-07-30T04:38:54;8.83;;;6.83;;
8415;SDS011;4245;42.120;24.732;2022-07-30T04:41:21;10.27;;;7.20;;
8415;SDS011;4245;42.120;24.732;2022-07-30T04:43:48;8.47;;;6.97;;
8415;SDS011;4245;42.120;24.732;2022-07-30T04:46:17;12.10;;;7.47;;
8415;SDS011;4245;42.120;24.732;2022-07-30T04:48:44;8.47;;;7.37;;
8415;SDS011;4245;42.120;24.732;2022-07-30T04:51:12;9.77;;;7.07;;
8415;SDS011;4245;42.120;24.732;2022-07-30T04:53:42;8.17;;;7.30;;
8415;SDS011;4245;42.120;24.732;2022-07-30T04:56:10;10.43;;;7.43;;
8415;SDS011;4245;42.120;24.732;2022-07-30T04:58:39;11.93;;;7.43;;
8415;SDS011;4245;42.120;24.732;2022-07-30T05:01:07;11.17;;;7.10;;
8415;SDS011;4245;42.120;24.732;2022-07-30T05:03:36;7.40;;;6.60;;
8415;SDS011;4245;42.120;24.732;2022-07-30T05:06:05;11.40;;;7.27;;
8415;SDS011;4245;42.120;24.732;2022-07-30T05:08:32;13.17;;;7.40;;
8415;SDS011;4245;42.120;24.732;2022-07-30T05:10:59;9.80;;;7.33;;
8415;SDS011;4245;42.120;24.732;2022-07-30T05:13:26;9.13;;;7.50;;
8415;SDS011;4245;42.120;24.732;2022-07-30T05:15:53;11.43;;;7.93;;
8415;SDS011;4245;42.120;24.732;2022-07-30T05:18:20;8.77;;;7.83;;
8415;SDS011;4245;42.120;24.732;2022-07-30T05:20:48;13.47;;;8.60;;
8415;SDS011;4245;42.120;24.732;2022-07-30T05:23:15;12.50;;;10.47;;
8415;SDS011;4245;42.120;24.732;2022-07-30T05:25:41;12.07;;;8.20;;
8415;SDS011;4245;42.120;24.732;2022-07-30T05:28:09;13.63;;;7.85;;
8415;SDS011;4245;42.120;24.732;2022-07-30T05:30:36;9.80;;;8.73;;
8415;SDS011;4245;42.120;24.732;2022-07-30T05:33:02;11.52;;;8.73;;
8415;SDS011;4245;42.120;24.732;2022-07-30T05:35:29;14.88;;;9.85;;
8415;SDS011;4245;42.120;24.732;2022-07-30T05:37:58;10.30;;;8.90;;
8415;SDS011;4245;42.120;24.732;2022-07-30T05:40:25;12.48;;;8.27;;
8415;SDS011;4245;42.120;24.732;2022-07-30T05:42:52;15.60;;;8.15;;
8415;SDS011;4245;42.120;24.732;2022-07-30T05:45:19;11.15;;;7.63;;
8415;SDS011;4245;42.120;24.732;2022-07-30T05:47:46;12.88;;;8.55;;
8415;SDS011;4245;42.120;24.732;2022-07-30T05:50:13;14.35;;;7.97;;
8415;SDS011;4245;42.120;24.732;2022-07-30T05:52:40;12.70;;;7.70;;
8415;SDS011;4245;42.120;24.732;2022-07-30T05:55:09;8.30;;;7.05;;
8415;SDS011;4245;42.120;24.732;2022-07-30T05:57:36;12.15;;;7.57;;
8415;SDS011;4245;42.120;24.732;2022-07-30T06:00:06;14.90;;;7.20;;
8415;SDS011;4245;42.120;24.732;2022-07-30T06:02:34;9.93;;;8.30;;
8415;SDS011;4245;42.120;24.732;2022-07-30T06:05:01;7.90;;;7.10;;
8415;SDS011;4245;42.120;24.732;2022-07-30T06:07:28;10.30;;;6.88;;
8415;SDS011;4245;42.120;24.732;2022-07-30T06:09:55;8.57;;;7.30;;
8415;SDS011;4245;42.120;24.732;2022-07-30T06:12:25;9.18;;;7.50;;
8415;SDS011;4245;42.120;24.732;2022-07-30T06:14:52;11.70;;;7.85;;
8415;SDS011;4245;42.120;24.732;2022-07-30T06:17:19;13.88;;;7.72;;
8415;SDS011;4245;42.120;24.732;2022-07-30T06:19:46;11.90;;;7.78;;
8415;SDS011;4245;42.120;24.732;2022-07-30T06:22:13;8.68;;;7.43;;
8415;SDS011;4245;42.120;24.732;2022-07-30T06:24:40;11.40;;;7.68;;
8415;SDS011;4245;42.120;24.732;2022-07-30T06:27:06;10.77;;;7.43;;
8415;SDS011;4245;42.120;24.732;2022-07-30T06:29:35;8.68;;;7.72;;
8415;SDS011;4245;42.120;24.732;2022-07-30T06:32:03;11.60;;;7.05;;
8415;SDS011;4245;42.120;24.732;2022-07-30T06:34:30;15.02;;;7.70;;
8415;SDS011;4245;42.120;24.732;2022-07-30T06:36:56;9.98;;;6.85;;
8415;SDS011;4245;42.120;24.732;2022-07-30T06:39:23;7.68;;;6.70;;
8415;SDS011;4245;42.120;24.732;2022-07-30T06:41:50;15.10;;;8.13;;
8415;SDS011;4245;42.120;24.732;2022-07-30T06:46:53;11.23;;;8.32;;
8415;SDS011;4245;42.120;24.732;2022-07-30T06:49:20;8.10;;;7.25;;
8415;SDS011;4245;42.120;24.732;2022-07-30T06:51:47;9.80;;;7.55;;
8415;SDS011;4245;42.120;24.732;2022-07-30T06:54:15;14.75;;;7.68;;
8415;SDS011;4245;42.120;24.732;2022-07-30T06:56:42;12.93;;;7.85;;
8415;SDS011;4245;42.120;24.732;2022-07-30T06:59:09;12.00;;;9.13;;
8415;SDS011;4245;42.120;24.732;2022-07-30T07:01:36;11.55;;;7.68;;
8415;SDS011;4245;42.120;24.732;2022-07-30T07:04:04;7.80;;;7.10;;
8415;SDS011;4245;42.120;24.732;2022-07-30T07:06:31;8.00;;;6.47;;
8415;SDS011;4245;42.120;24.732;2022-07-30T07:08:58;8.88;;;7.28;;
8415;SDS011;4245;42.120;24.732;2022-07-30T07:11:25;8.90;;;7.07;;
8415;SDS011;4245;42.120;24.732;2022-07-30T07:13:52;11.75;;;7.30;;
8415;SDS011;4245;42.120;24.732;2022-07-30T07:16:19;9.20;;;8.27;;
8415;SDS011;4245;42.120;24.732;2022-07-30T07:18:49;11.00;;;6.93;;
8415;SDS011;4245;42.120;24.732;2022-07-30T07:21:17;8.50;;;7.22;;
8415;SDS011;4245;42.120;24.732;2022-07-30T07:23:45;12.43;;;6.97;;
8415;SDS011;4245;42.120;24.732;2022-07-30T07:26:12;10.93;;;6.88;;
8415;SDS011;4245;42.120;24.732;2022-07-30T07:28:39;8.73;;;7.05;;
8415;SDS011;4245;42.120;24.732;2022-07-30T07:31:06;8.00;;;7.10;;
8415;SDS011;4245;42.120;24.732;2022-07-30T07:33:33;10.88;;;6.85;;
8415;SDS011;4245;42.120;24.732;2022-07-30T07:36:01;9.63;;;7.38;;
8415;SDS011;4245;42.120;24.732;2022-07-30T07:38:29;10.60;;;8.07;;
8415;SDS011;4245;42.120;24.732;2022-07-30T07:40:56;10.82;;;7.30;;
8415;SDS011;4245;42.120;24.732;2022-07-30T07:43:23;8.15;;;7.18;;
8415;SDS011;4245;42.120;24.732;2022-07-30T07:45:50;8.85;;;7.22;;
8415;SDS011;4245;42.120;24.732;2022-07-30T07:48:17;7.90;;;6.65;;
8415;SDS011;4245;42.120;24.732;2022-07-30T07:50:44;10.48;;;7.15;;
8415;SDS011;4245;42.120;24.732;2022-07-30T07:53:11;11.32;;;7.47;;
8415;SDS011;4245;42.120;24.732;2022-07-30T07:55:39;9.63;;;7.10;;
8415;SDS011;4245;42.120;24.732;2022-07-30T07:58:06;12.65;;;7.30;;
8415;SDS011;4245;42.120;24.732;2022-07-30T08:00:35;8.07;;;7.28;;
8415;SDS011;4245;42.120;24.732;2022-07-30T08:03:02;10.50;;;7.40;;
8415;SDS011;4245;42.120;24.732;2022-07-30T08:05:29;9.20;;;7.05;;
8415;SDS011;4245;42.120;24.732;2022-07-30T08:07:56;9.18;;;7.40;;
8415;SDS011;4245;42.120;24.732;2022-07-30T08:10:23;13.18;;;7.63;;
8415;SDS011;4245;42.120;24.732;2022-07-30T08:12:52;10.40;;;7.45;;
8415;SDS011;4245;42.120;24.732;2022-07-30T08:15:19;9.45;;;7.53;;
8415;SDS011;4245;42.120;24.732;2022-07-30T08:17:46;12.23;;;7.68;;
8415;SDS011;4245;42.120;24.732;2022-07-30T08:20:13;8.70;;;7.55;;
8415;SDS011;4245;42.120;24.732;2022-07-30T08:22:40;10.02;;;6.82;;
8415;SDS011;4245;42.120;24.732;2022-07-30T08:25:07;11.88;;;6.40;;
8415;SDS011;4245;42.120;24.732;2022-07-30T08:27:35;8.60;;;5.97;;
8415;SDS011;4245;42.120;24.732;2022-07-30T08:30:04;9.80;;;6.22;;
8415;SDS011;4245;42.120;24.732;2022-07-30T08:32:32;7.70;;;5.85;;
8415;SDS011;4245;42.120;24.732;2022-07-30T08:34:59;8.88;;;7.00;;
8415;SDS011;4245;42.120;24.732;2022-07-30T08:37:26;10.18;;;7.35;;
8415;SDS011;4245;42.120;24.732;2022-07-30T08:39:53;8.52;;;6.53;;
8415;SDS011;4245;42.120;24.732;2022-07-30T08:42:20;6.95;;;6.10;;
8415;SDS011;4245;42.120;24.732;2022-07-30T08:44:47;9.45;;;7.68;;
8415;SDS011;4245;42.120;24.732;2022-07-30T08:47:19;10.15;;;6.65;;
8415;SDS011;4245;42.120;24.732;2022-07-30T08:49:51;9.57;;;6.95;;
8415;SDS011;4245;42.120;24.732;2022-07-30T08:52:19;9.90;;;7.60;;
8415;SDS011;4245;42.120;24.732;2022-07-30T08:54:47;8.90;;;6.40;;
8415;SDS011;4245;42.120;24.732;2022-07-30T08:57:13;11.73;;;7.93;;
8415;SDS011;4245;42.120;24.732;2022-07-30T08:59:41;8.30;;;6.57;;
8415;SDS011;4245;42.120;24.732;2022-07-30T09:02:08;8.20;;;5.72;;
8415;SDS011;4245;42.120;24.732;2022-07-30T09:04:36;9.43;;;5.15;;
8415;SDS011;4245;42.120;24.732;2022-07-30T09:07:03;8.05;;;5.55;;
8415;SDS011;4245;42.120;24.732;2022-07-30T09:09:30;7.55;;;6.32;;
8415;SDS011;4245;42.120;24.732;2022-07-30T09:11:57;12.00;;;6.97;;
8415;SDS011;4245;42.120;24.732;2022-07-30T09:14:24;6.82;;;6.13;;
8415;SDS011;4245;42.120;24.732;2022-07-30T09:16:54;9.50;;;6.90;;
8415;SDS011;4245;42.120;24.732;2022-07-30T09:19:22;10.30;;;7.35;;
8415;SDS011;4245;42.120;24.732;2022-07-30T09:21:55;8.57;;;6.32;;
8415;SDS011;4245;42.120;24.732;2022-07-30T09:24:23;12.20;;;9.32;;
8415;SDS011;4245;42.120;24.732;2022-07-30T09:26:55;16.77;;;9.13;;
8415;SDS011;4245;42.120;24.732;2022-07-30T09:29:23;8.20;;;6.53;;
8415;SDS011;4245;42.120;24.732;2022-07-30T09:31:55;7.60;;;6.25;;
8415;SDS011;4245;42.120;24.732;2022-07-30T09:34:24;9.52;;;6.25;;
8415;SDS011;4245;42.120;24.732;2022-07-30T09:36:52;10.50;;;7.88;;
8415;SDS011;4245;42.120;24.732;2022-07-30T09:39:28;11.00;;;8.05;;
8415;SDS011;4245;42.120;24.732;2022-07-30T09:41:56;9.30;;;7.47;;
8415;SDS011;4245;42.120;24.732;2022-07-30T09:44:23;10.43;;;6.97;;
8415;SDS011;4245;42.120;24.732;2022-07-30T09:46:51;8.05;;;6.57;;
8415;SDS011;4245;42.120;24.732;2022-07-30T09:49:18;7.30;;;6.43;;
8415;SDS011;4245;42.120;24.732;2022-07-30T09:51:47;7.88;;;6.25;;
8415;SDS011;4245;42.120;24.732;2022-07-30T09:54:15;6.60;;;5.90;;
8415;SDS011;4245;42.120;24.732;2022-07-30T09:56:43;10.77;;;8.15;;
8415;SDS011;4245;42.120;24.732;2022-07-30T09:59:24;6.28;;;4.93;;
8415;SDS011;4245;42.120;24.732;2022-07-30T10:01:52;11.95;;;8.15;;
8415;SDS011;4245;42.120;24.732;2022-07-30T10:04:23;6.43;;;5.65;;
8415;SDS011;4245;42.120;24.732;2022-07-30T10:06:50;6.07;;;5.40;;
8415;SDS011;4245;42.120;24.732;2022-07-30T10:09:25;8.05;;;5.40;;
8415;SDS011;4245;42.120;24.732;2022-07-30T10:11:53;5.22;;;4.65;;
8415;SDS011;4245;42.120;24.732;2022-07-30T10:14:22;5.72;;;4.95;;
8415;SDS011;4245;42.120;24.732;2022-07-30T10:16:52;5.03;;;4.53;;
8415;SDS011;4245;42.120;24.732;2022-07-30T10:19:19;5.00;;;4.60;;
8415;SDS011;4245;42.120;24.732;2022-07-30T10:21:47;5.95;;;4.88;;
8415;SDS011;4245;42.120;24.732;2022-07-30T10:24:15;7.78;;;4.80;;
8415;SDS011;4245;42.120;24.732;2022-07-30T10:26:43;7.22;;;5.18;;
8415;SDS011;4245;42.120;24.732;2022-07-30T10:29:13;5.72;;;4.53;;
8415;SDS011;4245;42.120;24.732;2022-07-30T10:31:42;8.38;;;5.25;;
8415;SDS011;4245;42.120;24.732;2022-07-30T10:34:09;5.38;;;4.88;;
8415;SDS011;4245;42.120;24.732;2022-07-30T10:36:39;5.50;;;5.00;;
8415;SDS011;4245;42.120;24.732;2022-07-30T10:39:08;6.30;;;5.70;;
8415;SDS011;4245;42.120;24.732;2022-07-30T10:41:42;5.25;;;4.70;;
8415;SDS011;4245;42.120;24.732;2022-07-30T10:47:24;4.93;;;4.53;;
8415;SDS011;4245;42.120;24.732;2022-07-30T10:52:46;5.07;;;4.57;;
8415;SDS011;4245;42.120;24.732;2022-07-30T10:55:16;5.22;;;4.30;;
8415;SDS011;4245;42.120;24.732;2022-07-30T10:57:58;5.90;;;4.05;;
8415;SDS011;4245;42.120;24.732;2022-07-30T11:00:27;7.18;;;4.55;;
8415;SDS011;4245;42.120;24.732;2022-07-30T11:05:50;5.28;;;4.43;;
8415;SDS011;4245;42.120;24.732;2022-07-30T11:08:27;5.68;;;4.20;;
8415;SDS011;4245;42.120;24.732;2022-07-30T11:10:59;5.13;;;4.60;;
8415;SDS011;4245;42.120;24.732;2022-07-30T11:16:16;5.28;;;3.90;;
8415;SDS011;4245;42.120;24.732;2022-07-30T11:21:31;5.05;;;4.30;;
8415;SDS011;4245;42.120;24.732;2022-07-30T11:23:58;7.40;;;4.50;;
8415;SDS011;4245;42.120;24.732;2022-07-30T11:32:25;7.68;;;4.05;;
8415;SDS011;4245;42.120;24.732;2022-07-30T11:37:58;4.20;;;3.80;;
8415;SDS011;4245;42.120;24.732;2022-07-30T11:40:27;5.63;;;3.90;;
8415;SDS011;4245;42.120;24.732;2022-07-30T11:45:43;3.78;;;3.47;;
8415;SDS011;4245;42.120;24.732;2022-07-30T11:48:11;3.80;;;3.50;;
8415;SDS011;4245;42.120;24.732;2022-07-30T11:50:39;3.90;;;3.42;;
8415;SDS011;4245;42.120;24.732;2022-07-30T11:53:07;6.38;;;3.53;;
8415;SDS011;4245;42.120;24.732;2022-07-30T11:55:36;4.38;;;3.88;;
8415;SDS011;4245;42.120;24.732;2022-07-30T11:58:05;4.60;;;3.50;;
8415;SDS011;4245;42.120;24.732;2022-07-30T12:00:33;5.18;;;4.13;;
8415;SDS011;4245;42.120;24.732;2022-07-30T12:03:11;8.18;;;3.67;;
8415;SDS011;4245;42.120;24.732;2022-07-30T12:05:39;4.40;;;3.97;;
8415;SDS011;4245;42.120;24.732;2022-07-30T12:08:07;3.70;;;3.33;;
8415;SDS011;4245;42.120;24.732;2022-07-30T12:10:34;3.75;;;3.45;;
8415;SDS011;4245;42.120;24.732;2022-07-30T12:13:07;5.78;;;4.07;;
8415;SDS011;4245;42.120;24.732;2022-07-30T12:15:37;4.10;;;3.60;;
8415;SDS011;4245;42.120;24.732;2022-07-30T12:18:05;7.55;;;4.40;;
8415;SDS011;4245;42.120;24.732;2022-07-30T12:20:34;4.18;;;3.78;;
8415;SDS011;4245;42.120;24.732;2022-07-30T12:23:01;4.72;;;3.95;;
8415;SDS011;4245;42.120;24.732;2022-07-30T12:25:28;5.78;;;4.07;;
8415;SDS011;4245;42.120;24.732;2022-07-30T12:27:55;3.50;;;3.20;;
8415;SDS011;4245;42.120;24.732;2022-07-30T12:30:22;3.40;;;3.10;;
8415;SDS011;4245;42.120;24.732;2022-07-30T12:32:49;5.03;;;3.45;;
8415;SDS011;4245;42.120;24.732;2022-07-30T12:35:16;3.72;;;3.42;;
8415;SDS011;4245;42.120;24.732;2022-07-30T12:40:29;4.85;;;3.45;;
8415;SDS011;4245;42.120;24.732;2022-07-30T12:42:56;3.45;;;3.15;;
8415;SDS011;4245;42.120;24.732;2022-07-30T12:45:27;4.93;;;3.10;;
8415;SDS011;4245;42.120;24.732;2022-07-30T12:47:55;4.82;;;3.30;;
8415;SDS011;4245;42.120;24.732;2022-07-30T12:50:23;4.65;;;3.88;;
8415;SDS011;4245;42.120;24.732;2022-07-30T12:52:51;4.07;;;3.63;;
8415;SDS011;4245;42.120;24.732;2022-07-30T12:55:27;4.90;;;3.33;;
8415;SDS011;4245;42.120;24.732;2022-07-30T12:57:57;3.45;;;3.20;;
8415;SDS011;4245;42.120;24.732;2022-07-30T13:00:26;5.45;;;3.53;;
8415;SDS011;4245;42.120;24.732;2022-07-30T13:02:54;6.20;;;3.10;;
8415;SDS011;4245;42.120;24.732;2022-07-30T13:05:41;4.32;;;3.35;;
8415;SDS011;4245;42.120;24.732;2022-07-30T13:08:09;4.78;;;3.53;;
8415;SDS011;4245;42.120;24.732;2022-07-30T13:10:37;3.30;;;3.00;;
8415;SDS011;4245;42.120;24.732;2022-07-30T13:13:04;5.07;;;3.28;;
8415;SDS011;4245;42.120;24.732;2022-07-30T13:15:31;5.55;;;3.30;;
8415;SDS011;4245;42.120;24.732;2022-07-30T13:17:57;3.80;;;3.50;;
8415;SDS011;4245;42.120;24.732;2022-07-30T13:20:24;3.53;;;3.13;;
8415;SDS011;4245;42.120;24.732;2022-07-30T13:22:51;3.50;;;3.20;;
8415;SDS011;4245;42.120;24.732;2022-07-30T13:25:18;3.65;;;3.35;;
8415;SDS011;4245;42.120;24.732;2022-07-30T13:27:46;4.07;;;3.70;;
8415;SDS011;4245;42.120;24.732;2022-07-30T13:30:13;4.65;;;4.00;;
8415;SDS011;4245;42.120;24.732;2022-07-30T13:32:40;4.25;;;3.53;;
8415;SDS011;4245;42.120;24.732;2022-07-30T13:35:07;6.22;;;4.03;;
8415;SDS011;4245;42.120;24.732;2022-07-30T13:37:34;4.57;;;3.92;;
8415;SDS011;4245;42.120;24.732;2022-07-30T13:40:01;4.35;;;4.00;;
8415;SDS011;4245;42.120;24.732;2022-07-30T13:42:29;4.00;;;3.70;;
8415;SDS011;4245;42.120;24.732;2022-07-30T13:44:58;4.82;;;4.32;;
8415;SDS011;4245;42.120;24.732;2022-07-30T13:47:24;4.30;;;3.90;;
8415;SDS011;4245;42.120;24.732;2022-07-30T13:49:51;4.70;;;4.20;;
8415;SDS011;4245;42.120;24.732;2022-07-30T13:52:18;5.65;;;4.00;;
8415;SDS011;4245;42.120;24.732;2022-07-30T13:54:45;6.22;;;4.30;;
8415;SDS011;4245;42.120;24.732;2022-07-30T13:57:12;4.28;;;3.88;;
8415;SDS011;4245;42.120;24.732;2022-07-30T13:59:39;4.43;;;4.03;;
8415;SDS011;4245;42.120;24.732;2022-07-30T14:02:07;4.63;;;4.10;;
8415;SDS011;4245;42.120;24.732;2022-07-30T14:04:34;4.70;;;4.25;;
8415;SDS011;4245;42.120;24.732;2022-07-30T14:07:00;5.72;;;4.28;;
8415;SDS011;4245;42.120;24.732;2022-07-30T14:09:27;4.97;;;4.47;;
8415;SDS011;4245;42.120;24.732;2022-07-30T14:11:54;4.55;;;4.15;;
8415;SDS011;4245;42.120;24.732;2022-07-30T14:14:21;4.70;;;4.30;;
8415;SDS011;4245;42.120;24.732;2022-07-30T14:16:48;5.00;;;4.50;;
8415;SDS011;4245;42.120;24.732;2022-07-30T14:19:18;5.40;;;4.22;;
8415;SDS011;4245;42.120;24.732;2022-07-30T14:21:45;5.25;;;4.05;;
8415;SDS011;4245;42.120;24.732;2022-07-30T14:24:12;7.53;;;4.50;;
8415;SDS011;4245;42.120;24.732;2022-07-30T14:26:40;5.95;;;4.32;;
8415;SDS011;4245;42.120;24.732;2022-07-30T14:29:07;6.57;;;4.43;;
8415;SDS011;4245;42.120;24.732;2022-07-30T14:31:35;5.85;;;4.50;;
8415;SDS011;4245;42.120;24.732;2022-07-30T14:34:02;4.88;;;4.40;;
8415;SDS011;4245;42.120;24.732;2022-07-30T14:36:31;5.10;;;4.60;;
8415;SDS011;4245;42.120;24.732;2022-07-30T14:38:58;6.00;;;4.05;;
8415;SDS011;4245;42.120;24.732;2022-07-30T14:41:26;4.18;;;3.78;;
8415;SDS011;4245;42.120;24.732;2022-07-30T14:43:53;6.13;;;3.90;;
8415;SDS011;4245;42.120;24.732;2022-07-30T14:46:20;4.90;;;3.97;;
8415;SDS011;4245;42.120;24.732;2022-07-30T14:48:47;6.65;;;4.15;;
8415;SDS011;4245;42.120;24.732;2022-07-30T14:51:14;5.53;;;4.50;;
8415;SDS011;4245;42.120;24.732;2022-07-30T14:53:42;4.65;;;4.20;;
8415;SDS011;4245;42.120;24.732;2022-07-30T14:56:09;5.43;;;4.32;;
8415;SDS011;4245;42.120;24.732;2022-07-30T14:58:37;6.15;;;4.45;;
8415;SDS011;4245;42.120;24.732;2022-07-30T15:01:04;5.28;;;4.78;;
8415;SDS011;4245;42.120;24.732;2022-07-30T15:03:32;7.55;;;6.05;;
8415;SDS011;4245;42.120;24.732;2022-07-30T15:05:59;5.18;;;4.68;;
8415;SDS011;4245;42.120;24.732;2022-07-30T15:08:26;6.40;;;4.70;;
8415;SDS011;4245;42.120;24.732;2022-07-30T15:10:54;10.30;;;4.85;;
8415;SDS011;4245;42.120;24.732;2022-07-30T15:13:21;10.10;;;4.90;;
8415;SDS011;4245;42.120;24.732;2022-07-30T15:15:48;11.07;;;5.35;;
8415;SDS011;4245;42.120;24.732;2022-07-30T15:18:16;8.98;;;4.97;;
8415;SDS011;4245;42.120;24.732;2022-07-30T15:20:42;6.32;;;5.50;;
8415;SDS011;4245;42.120;24.732;2022-07-30T15:23:09;9.02;;;5.28;;
8415;SDS011;4245;42.120;24.732;2022-07-30T15:25:36;6.55;;;4.72;;
8415;SDS011;4245;42.120;24.732;2022-07-30T15:28:05;5.40;;;4.65;;
8415;SDS011;4245;42.120;24.732;2022-07-30T15:30:32;6.07;;;4.38;;
8415;SDS011;4245;42.120;24.732;2022-07-30T15:32:59;5.30;;;4.70;;
8415;SDS011;4245;42.120;24.732;2022-07-30T15:35:26;5.82;;;5.22;;